createdAt,value
2023-05-09T00:01:58.465Z,101530.16
2023-05-09T00:04:26.608Z,101525.42
2023-05-09T00:06:54.251Z,101523.12
2023-05-09T00:09:21.803Z,101520.10
2023-05-09T00:11:50.304Z,101517.30
2023-05-09T00:14:18.332Z,101517.95
2023-05-09T00:16:45.844Z,101520.20
2023-05-09T00:19:13.366Z,101523.81
2023-05-09T00:21:41.003Z,101523.64
2023-05-09T00:24:08.614Z,101522.58
2023-05-09T00:26:36.334Z,101520.82
2023-05-09T00:29:04.368Z,101521.30
2023-05-09T00:31:32.481Z,101524.73
2023-05-09T00:34:00.732Z,101517.95
2023-05-09T00:36:28.307Z,101517.08
2023-05-09T00:38:55.841Z,101516.52
2023-05-09T00:41:23.527Z,101512.13
2023-05-09T00:43:51.141Z,101512.59
2023-05-09T00:46:18.774Z,101508.74
2023-05-09T00:48:46.814Z,101507.32
2023-05-09T00:51:15.477Z,101503.83
2023-05-09T00:53:43.061Z,101507.77
2023-05-09T00:56:12.094Z,101506.54
2023-05-09T00:58:39.654Z,101510.98
2023-05-09T01:01:08.399Z,101512.17
2023-05-09T01:03:36.744Z,101514.02
2023-05-09T01:06:24.474Z,101515.02
2023-05-09T01:09:15.209Z,101512.02
2023-05-09T01:12:07.951Z,101505.93
2023-05-09T01:14:51.677Z,101504.32
2023-05-09T01:17:46.611Z,101503.06
2023-05-09T01:20:39.110Z,101502.80
2023-05-09T01:23:22.958Z,101504.30
2023-05-09T01:26:08.426Z,101504.39
2023-05-09T01:28:56.819Z,101503.80
2023-05-09T01:31:26.856Z,101502.55
2023-05-09T01:34:02.985Z,101503.74
2023-05-09T01:36:33.835Z,101504.21
2023-05-09T01:39:04.206Z,101503.52
2023-05-09T01:41:36.279Z,101501.41
2023-05-09T01:44:08.289Z,101501.56
2023-05-09T01:46:37.434Z,101498.80
2023-05-09T01:49:08.993Z,101498.62
2023-05-09T01:51:38.610Z,101496.85
2023-05-09T01:54:06.913Z,101495.46
2023-05-09T01:56:36.940Z,101496.16
2023-05-09T01:59:06.548Z,101494.09
2023-05-09T02:01:37.142Z,101497.36
2023-05-09T02:04:05.686Z,101497.17
2023-05-09T02:06:34.663Z,101493.86
2023-05-09T02:09:02.979Z,101495.04
2023-05-09T02:11:30.697Z,101499.83
2023-05-09T02:13:58.359Z,101498.55
2023-05-09T02:16:27.772Z,101500.20
2023-05-09T02:18:55.574Z,101500.28
2023-05-09T02:21:23.256Z,101501.63
2023-05-09T02:23:51.037Z,101500.89
2023-05-09T02:26:20.295Z,101500.88
2023-05-09T02:28:49.753Z,101498.11
2023-05-09T02:31:20.435Z,101498.60
2023-05-09T02:33:49.569Z,101497.52
2023-05-09T02:36:18.468Z,101494.74
2023-05-09T02:38:48.374Z,101494.86
2023-05-09T02:41:17.087Z,101491.04
2023-05-09T02:43:44.791Z,101492.55
2023-05-09T02:46:12.956Z,101492.53
2023-05-09T02:48:40.674Z,101495.95
2023-05-09T02:51:08.295Z,101494.68
2023-05-09T02:53:35.884Z,101495.33
2023-05-09T02:56:04.109Z,101499.77
2023-05-09T02:58:31.744Z,101497.64
2023-05-09T03:00:59.410Z,101495.65
2023-05-09T03:03:27.070Z,101492.51
2023-05-09T03:05:54.850Z,101494.40
2023-05-09T03:08:22.301Z,101490.63
2023-05-09T03:10:49.890Z,101494.09
2023-05-09T03:13:17.430Z,101493.75
2023-05-09T03:15:45.080Z,101493.59
2023-05-09T03:18:13.028Z,101493.42
2023-05-09T03:20:40.744Z,101495.70
2023-05-09T03:23:08.425Z,101496.41
2023-05-09T03:25:36.100Z,101498.50
2023-05-09T03:28:05.004Z,101498.16
2023-05-09T03:30:32.600Z,101503.55
2023-05-09T03:33:00.358Z,101499.77
2023-05-09T03:35:27.940Z,101496.17
2023-05-09T03:37:55.604Z,101497.05
2023-05-09T03:40:23.207Z,101502.27
2023-05-09T03:42:50.786Z,101502.44
2023-05-09T03:45:18.492Z,101504.53
2023-05-09T03:47:46.451Z,101507.36
2023-05-09T03:50:14.000Z,101510.69
2023-05-09T03:52:41.571Z,101514.19
2023-05-09T03:55:09.596Z,101512.71
2023-05-09T03:57:37.674Z,101517.34
2023-05-09T04:00:06.806Z,101515.02
2023-05-09T04:02:34.588Z,101514.41
2023-05-09T04:05:02.310Z,101514.73
2023-05-09T04:07:31.496Z,101513.30
2023-05-09T04:09:59.817Z,101516.05
2023-05-09T04:12:27.471Z,101515.49
2023-05-09T04:14:55.059Z,101513.38
2023-05-09T04:17:22.760Z,101512.66
2023-05-09T04:19:50.559Z,101511.41
2023-05-09T04:22:18.447Z,101509.80
2023-05-09T04:24:46.281Z,101508.89
2023-05-09T04:27:14.044Z,101515.21
2023-05-09T04:29:41.914Z,101512.67
2023-05-09T04:32:09.460Z,101514.99
2023-05-09T04:34:37.458Z,101519.08
2023-05-09T04:37:06.005Z,101515.52
2023-05-09T04:39:33.596Z,101517.16
2023-05-09T04:42:01.116Z,101516.20
2023-05-09T04:44:28.889Z,101513.52
2023-05-09T04:46:58.237Z,101512.08
2023-05-09T04:49:25.916Z,101513.05
2023-05-09T04:51:53.478Z,101515.06
2023-05-09T04:54:21.421Z,101519.83
2023-05-09T04:56:50.714Z,101519.23
2023-05-09T04:59:19.071Z,101519.14
2023-05-09T05:01:46.815Z,101518.20
2023-05-09T05:04:14.532Z,101518.08
2023-05-09T05:06:42.175Z,101520.80
2023-05-09T05:09:10.857Z,101518.98
2023-05-09T05:11:38.301Z,101517.51
2023-05-09T05:14:05.898Z,101511.35
2023-05-09T05:16:33.721Z,101511.59
2023-05-09T05:19:01.440Z,101511.30
2023-05-09T05:21:29.721Z,101512.05
2023-05-09T05:23:57.243Z,101507.92
2023-05-09T05:26:25.727Z,101507.27
2023-05-09T05:28:55.635Z,101508.67
2023-05-09T05:31:23.422Z,101508.35
2023-05-09T05:33:50.903Z,101506.79
2023-05-09T05:36:20.920Z,101496.37
2023-05-09T05:38:50.555Z,101497.24
2023-05-09T05:41:21.006Z,101495.16
2023-05-09T05:43:48.492Z,101493.22
2023-05-09T05:46:22.832Z,101495.29
2023-05-09T05:49:28.474Z,101495.05
2023-05-09T05:51:56.109Z,101496.04
2023-05-09T05:54:25.556Z,101497.20
2023-05-09T05:56:53.072Z,101494.52
2023-05-09T05:59:22.970Z,101490.08
2023-05-09T06:01:54.275Z,101490.33
2023-05-09T06:04:22.207Z,101490.56
2023-05-09T06:06:53.538Z,101488.54
2023-05-09T06:09:21.147Z,101487.18
2023-05-09T06:11:49.143Z,101483.90
2023-05-09T06:14:20.500Z,101480.08
2023-05-09T06:16:48.352Z,101470.48
2023-05-09T06:19:18.935Z,101470.45
2023-05-09T06:21:46.622Z,101464.67
2023-05-09T06:24:23.851Z,101465.86
2023-05-09T06:27:03.087Z,101467.78
2023-05-09T06:29:40.128Z,101465.83
2023-05-09T06:32:07.732Z,101467.35
2023-05-09T06:34:38.072Z,101465.72
2023-05-09T06:37:06.181Z,101459.23
2023-05-09T06:39:39.842Z,101460.06
2023-05-09T06:42:10.900Z,101459.65
2023-05-09T06:44:38.651Z,101455.38
2023-05-09T06:47:06.730Z,101450.92
2023-05-09T06:49:37.501Z,101452.63
2023-05-09T06:52:05.165Z,101454.13
2023-05-09T06:54:33.088Z,101453.35
2023-05-09T06:57:04.571Z,101450.84
2023-05-09T06:59:39.759Z,101446.56
2023-05-09T07:02:07.423Z,101446.74
2023-05-09T07:04:35.958Z,101445.67
2023-05-09T07:07:16.740Z,101443.77
2023-05-09T07:09:50.696Z,101441.34
2023-05-09T07:12:41.477Z,101435.90
2023-05-09T07:15:10.287Z,101435.56
2023-05-09T07:17:38.097Z,101440.67
2023-05-09T07:20:07.163Z,101432.86
2023-05-09T07:22:39.176Z,101435.34
2023-05-09T07:25:13.743Z,101429.89
2023-05-09T07:27:41.415Z,101426.34
2023-05-09T07:30:09.318Z,101427.70
2023-05-09T07:32:37.057Z,101428.02
2023-05-09T07:35:05.793Z,101422.63
2023-05-09T07:37:33.476Z,101415.06
2023-05-09T07:40:01.571Z,101407.94
2023-05-09T07:42:35.444Z,101408.82
2023-05-09T07:45:07.549Z,101407.02
2023-05-09T07:47:35.701Z,101403.98
2023-05-09T07:50:03.766Z,101408.61
2023-05-09T07:52:42.406Z,101408.65
2023-05-09T07:55:46.649Z,101402.74
2023-05-09T07:58:15.902Z,101400.02
2023-05-09T08:00:44.724Z,101398.89
2023-05-09T08:03:12.702Z,101400.15
2023-05-09T08:05:40.862Z,101393.64
2023-05-09T08:08:10.125Z,101391.60
2023-05-09T08:10:37.862Z,101391.01
2023-05-09T08:13:06.021Z,101388.87
2023-05-09T08:15:44.381Z,101382.91
2023-05-09T08:18:12.568Z,101378.94
2023-05-09T08:20:40.900Z,101380.05
2023-05-09T08:23:08.899Z,101371.00
2023-05-09T08:25:36.677Z,101371.98
2023-05-09T08:28:06.526Z,101370.28
2023-05-09T08:30:34.461Z,101371.06
2023-05-09T08:33:02.487Z,101363.92
2023-05-09T08:35:33.318Z,101364.65
2023-05-09T08:38:01.496Z,101363.45
2023-05-09T08:40:29.347Z,101349.23
2023-05-09T08:42:57.843Z,101346.83
2023-05-09T08:45:30.622Z,101349.28
2023-05-09T08:48:03.437Z,101351.30
2023-05-09T08:50:35.432Z,101339.90
2023-05-09T08:53:08.920Z,101338.40
2023-05-09T08:55:38.061Z,101336.23
2023-05-09T08:58:28.198Z,101332.24
2023-05-09T09:01:00.015Z,101328.94
2023-05-09T09:03:27.552Z,101332.77
2023-05-09T09:05:56.604Z,101334.14
2023-05-09T09:08:26.448Z,101328.58
2023-05-09T09:10:54.287Z,101323.42
2023-05-09T09:13:22.670Z,101312.34
2023-05-09T09:15:54.036Z,101312.73
2023-05-09T09:18:23.978Z,101315.03
2023-05-09T09:21:06.398Z,101313.08
2023-05-09T09:23:34.645Z,101311.17
2023-05-09T09:26:06.522Z,101304.92
2023-05-09T09:28:34.192Z,101306.84
2023-05-09T09:31:02.042Z,101303.23
2023-05-09T09:33:29.780Z,101303.67
2023-05-09T09:35:57.799Z,101301.34
2023-05-09T09:38:25.529Z,101303.65
2023-05-09T09:40:54.884Z,101308.54
2023-05-09T09:43:34.044Z,101295.80
2023-05-09T09:46:07.343Z,101300.98
2023-05-09T09:48:36.187Z,101303.98
2023-05-09T09:51:11.585Z,101300.09
2023-05-09T09:53:41.381Z,101294.73
2023-05-09T09:56:09.706Z,101292.90
2023-05-09T09:58:37.192Z,101282.42
2023-05-09T10:01:09.777Z,101282.89
2023-05-09T10:03:41.921Z,101276.31
2023-05-09T10:06:11.749Z,101279.55
2023-05-09T10:08:40.198Z,101267.38
2023-05-09T10:11:08.930Z,101266.20
2023-05-09T10:13:38.406Z,101259.92
2023-05-09T10:16:08.849Z,101259.30
2023-05-09T10:18:37.744Z,101254.67
2023-05-09T10:21:09.619Z,101236.71
2023-05-09T10:23:40.923Z,101251.76
2023-05-09T10:26:32.486Z,101246.13
2023-05-09T10:29:05.655Z,101242.17
2023-05-09T10:31:39.195Z,101241.63
2023-05-09T10:34:10.590Z,101236.25
2023-05-09T10:36:38.866Z,101227.89
2023-05-09T10:39:09.909Z,101223.52
2023-05-09T10:41:39.657Z,101226.19
2023-05-09T10:44:07.345Z,101224.44
2023-05-09T10:46:36.179Z,101220.67
2023-05-09T10:49:04.386Z,101223.23
2023-05-09T10:51:33.228Z,101213.61
2023-05-09T10:54:01.137Z,101214.40
2023-05-09T10:56:36.596Z,101211.34
2023-05-09T10:59:05.159Z,101199.06
2023-05-09T11:01:37.764Z,101197.58
2023-05-09T11:04:12.911Z,101195.35
2023-05-09T11:06:51.976Z,101188.91
2023-05-09T11:09:28.354Z,101184.15
2023-05-09T11:12:05.102Z,101175.04
2023-05-09T11:14:38.000Z,101175.87
2023-05-09T11:17:09.397Z,101166.84
2023-05-09T11:19:39.950Z,101164.20
2023-05-09T11:22:16.568Z,101166.56
2023-05-09T11:24:47.324Z,101160.61
2023-05-09T11:27:26.772Z,101163.17
2023-05-09T11:30:00.613Z,101162.91
2023-05-09T11:32:35.046Z,101164.17
2023-05-09T11:35:12.559Z,101162.11
2023-05-09T11:37:58.083Z,101159.17
2023-05-09T11:40:27.500Z,101153.80
2023-05-09T11:42:58.875Z,101146.63
2023-05-09T11:45:32.200Z,101136.86
2023-05-09T11:48:01.599Z,101131.81
2023-05-09T11:50:29.364Z,101132.11
2023-05-09T11:52:57.197Z,101136.88
2023-05-09T11:55:29.810Z,101131.48
2023-05-09T11:57:59.350Z,101123.83
2023-05-09T12:00:27.305Z,101114.30
2023-05-09T12:02:55.036Z,101109.20
2023-05-09T12:05:23.357Z,101107.84
2023-05-09T12:07:52.210Z,101095.47
2023-05-09T12:10:23.312Z,101089.60
2023-05-09T12:12:55.477Z,101097.16
2023-05-09T12:15:23.802Z,101098.06
2023-05-09T12:18:08.897Z,101099.81
2023-05-09T12:20:53.298Z,101094.02
2023-05-09T12:23:20.948Z,101094.56
2023-05-09T12:25:56.468Z,101090.40
2023-05-09T12:28:27.941Z,101089.61
2023-05-09T12:30:56.173Z,101085.19
2023-05-09T12:33:25.301Z,101086.95
2023-05-09T12:36:11.383Z,101085.44
2023-05-09T12:38:39.330Z,101078.77
2023-05-09T12:41:34.899Z,101077.16
2023-05-09T12:44:06.051Z,101067.24
2023-05-09T12:46:35.689Z,101060.73
2023-05-09T12:49:03.889Z,101053.96
2023-05-09T12:51:31.427Z,101053.67
2023-05-09T12:54:04.769Z,101047.44
2023-05-09T12:56:37.182Z,101048.36
2023-05-09T12:59:21.027Z,101044.43
2023-05-09T13:01:54.935Z,101042.54
2023-05-09T13:04:23.458Z,101043.77
2023-05-09T13:06:55.399Z,101035.60
2023-05-09T13:09:25.310Z,101033.02
2023-05-09T13:11:53.572Z,101030.52
2023-05-09T13:14:23.069Z,101012.60
2023-05-09T13:16:50.756Z,101018.34
2023-05-09T13:19:18.317Z,101019.92
2023-05-09T13:21:46.053Z,101019.30
2023-05-09T13:24:13.606Z,101014.38
2023-05-09T13:26:41.244Z,101011.70
2023-05-09T13:29:08.756Z,101005.71
2023-05-09T13:31:36.267Z,101006.92
2023-05-09T13:34:05.057Z,101000.91
2023-05-09T13:36:32.975Z,100991.38
2023-05-09T13:39:00.692Z,100992.88
2023-05-09T13:41:30.749Z,100988.81
2023-05-09T13:43:58.648Z,100985.95
2023-05-09T13:46:27.779Z,100983.58
2023-05-09T13:48:55.461Z,100976.06
2023-05-09T13:51:23.549Z,100980.81
2023-05-09T13:53:51.212Z,100981.73
2023-05-09T13:56:19.487Z,100977.16
2023-05-09T13:58:47.021Z,100968.95
2023-05-09T14:01:15.407Z,100966.75
2023-05-09T14:03:43.066Z,100968.73
2023-05-09T14:06:15.266Z,100971.60
2023-05-09T14:08:44.134Z,100968.23
2023-05-09T14:11:11.667Z,100966.12
2023-05-09T14:13:39.103Z,100959.85
2023-05-09T14:16:07.095Z,100954.63
2023-05-09T14:18:35.534Z,100958.18
2023-05-09T14:21:03.120Z,100957.25
2023-05-09T14:23:31.450Z,100946.33
2023-05-09T14:26:00.130Z,100947.19
2023-05-09T14:28:28.155Z,100945.77
2023-05-09T14:30:57.397Z,100938.84
2023-05-09T14:33:26.333Z,100942.98
2023-05-09T14:35:56.437Z,100949.11
2023-05-09T14:38:24.174Z,100949.48
2023-05-09T14:40:51.815Z,100947.93
2023-05-09T14:43:19.286Z,100943.56
2023-05-09T14:45:47.308Z,100942.65
2023-05-09T14:48:16.228Z,100940.89
2023-05-09T14:50:43.982Z,100938.03
2023-05-09T14:53:11.660Z,100931.70
2023-05-09T14:55:39.144Z,100932.49
2023-05-09T14:58:07.681Z,100926.81
2023-05-09T15:00:35.166Z,100917.35
2023-05-09T15:03:03.213Z,100912.52
2023-05-09T15:05:31.664Z,100915.73
2023-05-09T15:07:59.125Z,100918.06
2023-05-09T15:10:27.805Z,100905.55
2023-05-09T15:12:56.148Z,100905.11
2023-05-09T15:15:24.210Z,100901.54
2023-05-09T15:17:52.920Z,100899.02
2023-05-09T15:20:21.578Z,100895.42
2023-05-09T15:22:50.603Z,100891.56
2023-05-09T15:25:19.506Z,100889.60
2023-05-09T15:27:50.265Z,100887.33
2023-05-09T15:30:18.008Z,100882.81
2023-05-09T15:32:46.877Z,100882.05
2023-05-09T15:35:15.702Z,100880.48
2023-05-09T15:37:43.281Z,100874.80
2023-05-09T15:40:11.553Z,100874.86
2023-05-09T15:42:40.097Z,100870.84
2023-05-09T15:45:08.717Z,100869.42
2023-05-09T15:47:36.301Z,100864.55
2023-05-09T15:50:05.476Z,100863.27
2023-05-09T15:52:33.293Z,100860.38
2023-05-09T15:55:00.839Z,100853.90
2023-05-09T15:57:36.784Z,100849.52
2023-05-09T16:00:05.388Z,100849.60
2023-05-09T16:02:33.077Z,100848.39
2023-05-09T16:05:00.674Z,100842.65
2023-05-09T16:07:28.258Z,100836.09
2023-05-09T16:09:55.996Z,100834.59
2023-05-09T16:12:24.286Z,100830.60
2023-05-09T16:14:51.833Z,100833.86
2023-05-09T16:17:19.404Z,100835.06
2023-05-09T16:19:46.921Z,100826.57
2023-05-09T16:22:14.617Z,100819.16
2023-05-09T16:24:42.217Z,100818.70
2023-05-09T16:27:09.819Z,100818.55
2023-05-09T16:29:37.302Z,100817.69
2023-05-09T16:32:05.137Z,100813.02
2023-05-09T16:34:32.836Z,100806.70
2023-05-09T16:37:00.373Z,100802.61
2023-05-09T16:39:29.532Z,100800.70
2023-05-09T16:41:58.149Z,100800.80
2023-05-09T16:44:26.514Z,100802.82
2023-05-09T16:46:54.151Z,100798.18
2023-05-09T16:49:22.866Z,100797.06
2023-05-09T16:51:51.115Z,100795.45
2023-05-09T16:54:18.583Z,100792.27
2023-05-09T16:56:46.475Z,100791.40
2023-05-09T16:59:13.963Z,100784.08
2023-05-09T17:01:42.411Z,100782.77
2023-05-09T17:04:10.075Z,100780.60
2023-05-09T17:06:37.825Z,100781.73
2023-05-09T17:09:05.436Z,100783.77
2023-05-09T17:11:33.946Z,100778.71
2023-05-09T17:14:04.456Z,100774.64
2023-05-09T17:16:32.259Z,100768.81
2023-05-09T17:19:00.250Z,100773.02
2023-05-09T17:21:28.352Z,100767.73
2023-05-09T17:23:56.214Z,100765.86
2023-05-09T17:26:24.402Z,100766.41
2023-05-09T17:28:52.037Z,100766.42
2023-05-09T17:31:19.861Z,100768.20
2023-05-09T17:33:47.356Z,100769.19
2023-05-09T17:36:14.955Z,100769.23
2023-05-09T17:38:42.537Z,100774.58
2023-05-09T17:41:10.140Z,100773.13
2023-05-09T17:43:40.226Z,100773.20
2023-05-09T17:46:09.260Z,100772.56
2023-05-09T17:48:39.078Z,100774.92
2023-05-09T17:51:07.277Z,100774.92
2023-05-09T17:53:34.870Z,100775.02
2023-05-09T17:56:02.346Z,100778.02
2023-05-09T17:58:30.100Z,100783.16
2023-05-09T18:00:59.746Z,100789.62
2023-05-09T18:03:29.135Z,100793.40
2023-05-09T18:05:57.113Z,100792.03
2023-05-09T18:08:25.049Z,100790.89
2023-05-09T18:10:56.121Z,100793.98
2023-05-09T18:13:23.908Z,100793.64
2023-05-09T18:15:54.010Z,100794.09
2023-05-09T18:18:22.903Z,100791.23
2023-05-09T18:20:50.896Z,100796.56
2023-05-09T18:23:18.379Z,100791.38
2023-05-09T18:25:45.923Z,100795.74
2023-05-09T18:28:13.376Z,100800.42
2023-05-09T18:30:41.353Z,100800.15
2023-05-09T18:33:08.967Z,100797.05
2023-05-09T18:35:36.788Z,100795.86
2023-05-09T18:38:04.376Z,100797.48
2023-05-09T18:40:32.560Z,100799.17
2023-05-09T18:43:00.045Z,100803.82
2023-05-09T18:45:28.199Z,100802.51
2023-05-09T18:47:55.782Z,100803.30
2023-05-09T18:50:23.480Z,100801.02
2023-05-09T18:52:52.063Z,100808.69
2023-05-09T18:55:20.959Z,100807.95
2023-05-09T18:57:49.074Z,100813.80
2023-05-09T19:00:17.699Z,100809.35
2023-05-09T19:02:45.587Z,100811.84
2023-05-09T19:05:13.132Z,100812.42
2023-05-09T19:07:40.619Z,100813.13
2023-05-09T19:10:08.415Z,100814.36
2023-05-09T19:12:36.105Z,100812.95
2023-05-09T19:15:05.038Z,100812.91
2023-05-09T19:17:33.430Z,100809.23
2023-05-09T19:20:02.282Z,100810.10
2023-05-09T19:22:29.770Z,100810.69
2023-05-09T19:24:58.401Z,100811.83
2023-05-09T19:27:25.942Z,100812.42
2023-05-09T19:29:54.040Z,100812.65
2023-05-09T19:32:22.426Z,100808.52
2023-05-09T19:34:49.890Z,100808.23
2023-05-09T19:37:17.464Z,100809.84
2023-05-09T19:39:45.164Z,100811.46
2023-05-09T19:42:12.722Z,100813.22
2023-05-09T19:44:40.330Z,100810.97
2023-05-09T19:47:09.129Z,100808.91
2023-05-09T19:49:36.731Z,100808.74
2023-05-09T19:52:04.428Z,100807.35
2023-05-09T19:54:31.949Z,100809.45
2023-05-09T19:56:59.402Z,100809.27
2023-05-09T19:59:26.977Z,100807.89
2023-05-09T20:01:54.542Z,100809.30
2023-05-09T20:04:22.758Z,100810.52
2023-05-09T20:06:50.746Z,100814.86
2023-05-09T20:09:20.882Z,100813.42
2023-05-09T20:11:48.528Z,100815.84
2023-05-09T20:14:16.315Z,100817.89
2023-05-09T20:16:44.236Z,100816.98
2023-05-09T20:19:14.030Z,100816.77
2023-05-09T20:21:42.644Z,100819.15
2023-05-09T20:24:11.937Z,100820.15
2023-05-09T20:26:39.511Z,100823.91
2023-05-09T20:29:07.609Z,100822.61
2023-05-09T20:31:35.605Z,100822.72
2023-05-09T20:34:03.354Z,100824.73
2023-05-09T20:36:31.519Z,100826.20
2023-05-09T20:38:59.047Z,100824.73
2023-05-09T20:41:27.100Z,100823.61
2023-05-09T20:43:54.812Z,100821.27
2023-05-09T20:46:22.349Z,100826.05
2023-05-09T20:48:49.993Z,100823.88
2023-05-09T20:51:17.505Z,100820.36
2023-05-09T20:53:45.086Z,100824.66
2023-05-09T20:56:12.679Z,100825.27
2023-05-09T20:58:40.788Z,100824.09
2023-05-09T21:01:08.408Z,100821.02
2023-05-09T21:03:35.925Z,100817.07
2023-05-09T21:06:03.608Z,100819.57
2023-05-09T21:08:31.245Z,100818.95
2023-05-09T21:10:58.899Z,100819.73
2023-05-09T21:13:26.525Z,100816.84
2023-05-09T21:15:54.159Z,100813.11
2023-05-09T21:18:21.754Z,100815.95
2023-05-09T21:20:49.509Z,100817.23
2023-05-09T21:23:18.851Z,100815.91
2023-05-09T21:25:46.380Z,100815.45
2023-05-09T21:28:15.463Z,100811.84
2023-05-09T21:30:43.039Z,100812.77
2023-05-09T21:33:11.763Z,100812.84
2023-05-09T21:35:39.557Z,100810.98
2023-05-09T21:38:07.152Z,100811.22
2023-05-09T21:40:34.897Z,100809.36
2023-05-09T21:43:03.416Z,100809.77
2023-05-09T21:45:30.888Z,100807.76
2023-05-09T21:47:58.682Z,100809.39
2023-05-09T21:50:26.287Z,100812.05
2023-05-09T21:52:56.406Z,100810.02
2023-05-09T21:55:24.130Z,100811.60
2023-05-09T21:57:51.784Z,100813.23
2023-05-09T22:00:21.341Z,100811.38
2023-05-09T22:02:49.000Z,100815.25
2023-05-09T22:05:16.818Z,100813.92
2023-05-09T22:07:44.346Z,100817.96
2023-05-09T22:10:12.093Z,100819.05
2023-05-09T22:12:39.706Z,100817.38
2023-05-09T22:15:07.720Z,100816.21
2023-05-09T22:17:35.962Z,100821.48
2023-05-09T22:20:04.067Z,100822.73
2023-05-09T22:22:33.113Z,100817.56
2023-05-09T22:25:00.724Z,100818.66
2023-05-09T22:27:28.330Z,100816.25
2023-05-09T22:29:56.104Z,100815.77
2023-05-09T22:32:24.272Z,100815.28
2023-05-09T22:34:53.969Z,100811.69
2023-05-09T22:37:21.524Z,100809.81
2023-05-09T22:39:49.047Z,100810.54
2023-05-09T22:42:16.628Z,100808.61
2023-05-09T22:44:44.973Z,100806.21
2023-05-09T22:47:12.764Z,100809.37
2023-05-09T22:49:40.381Z,100803.66
2023-05-09T22:52:07.840Z,100801.40
2023-05-09T22:54:35.331Z,100800.74
2023-05-09T22:57:02.929Z,100796.75
2023-05-09T22:59:30.558Z,100798.35
2023-05-09T23:01:59.507Z,100796.97
2023-05-09T23:04:27.664Z,100799.41
2023-05-09T23:06:55.649Z,100796.14
2023-05-09T23:09:23.280Z,100795.10
2023-05-09T23:11:51.579Z,100795.83
2023-05-09T23:14:19.184Z,100794.28
2023-05-09T23:16:47.200Z,100793.58
2023-05-09T23:19:14.771Z,100790.98
2023-05-09T23:21:42.318Z,100791.19
2023-05-09T23:24:09.831Z,100793.45
2023-05-09T23:26:38.304Z,100789.12
2023-05-09T23:29:05.862Z,100787.59
2023-05-09T23:31:33.875Z,100787.27
2023-05-09T23:34:01.521Z,100784.89
2023-05-09T23:36:29.162Z,100784.02
2023-05-09T23:38:56.726Z,100783.89
2023-05-09T23:41:24.330Z,100782.66
2023-05-09T23:43:51.839Z,100782.51
2023-05-09T23:46:19.416Z,100782.51
2023-05-09T23:48:46.970Z,100781.48
2023-05-09T23:51:14.534Z,100782.36
2023-05-09T23:53:42.121Z,100779.92
2023-05-09T23:56:10.664Z,100778.38
2023-05-09T23:58:38.341Z,100777.35
